Time;durP1;ratioP1;P1;durP2;ratioP2;P2;SDS_P1;SDS_P2;PMS_P1;PMS_P2;Temp;Humidity;BMP_temperature;BMP_pressure;BME280_temperature;BME280_humidity;BME280_pressure;Samples;Min_cycle;Max_cycle;Signal;HPM_P1;HPM_P2
2021/09/06 00:00:39;;;;;;;7.78;6.97;;;19.20;99.90;;;;;;5034863;28;20205;-77
2021/09/06 00:03:06;;;;;;;8.95;8.05;;;19.20;99.90;;;;;;5025946;28;20192;-77
2021/09/06 00:05:34;;;;;;;7.85;6.80;;;19.20;99.90;;;;;;5026253;28;20199;-77
2021/09/06 00:08:01;;;;;;;9.05;8.15;;;19.20;99.90;;;;;;5019974;28;20720;-77
2021/09/06 00:10:37;;;;;;;9.20;7.25;;;19.20;99.90;;;;;;5025707;28;20200;-77
2021/09/06 00:13:06;;;;;;;7.60;6.85;;;19.10;99.90;;;;;;5028842;28;20196;-77
2021/09/06 00:15:33;;;;;;;8.68;6.80;;;19.10;99.90;;;;;;5026453;28;20545;-77
2021/09/06 00:18:00;;;;;;;8.25;6.97;;;19.10;99.90;;;;;;5031060;28;20220;-77
2021/09/06 00:20:27;;;;;;;8.20;7.32;;;19.10;99.90;;;;;;5023556;28;20220;-77
2021/09/06 00:22:56;;;;;;;8.10;7.28;;;19.10;99.90;;;;;;5029760;28;20201;-76
2021/09/06 00:25:22;;;;;;;7.82;7.03;;;19.00;99.90;;;;;;5023268;28;20188;-77
2021/09/06 00:27:50;;;;;;;8.57;6.93;;;19.10;99.90;;;;;;5033128;28;20204;-76
2021/09/06 00:30:17;;;;;;;7.93;7.15;;;19.10;99.90;;;;;;5021047;28;20192;-77
2021/09/06 00:32:44;;;;;;;7.90;7.20;;;19.00;99.90;;;;;;5027632;28;20257;-77
2021/09/06 00:35:11;;;;;;;8.70;7.80;;;19.00;99.90;;;;;;5025669;28;20255;-77
2021/09/06 00:37:38;;;;;;;8.25;7.32;;;19.00;99.90;;;;;;5028182;28;20251;-77
2021/09/06 00:40:07;;;;;;;9.52;7.60;;;19.00;99.90;;;;;;5029948;28;20192;-77
2021/09/06 00:42:34;;;;;;;9.45;8.55;;;18.90;99.90;;;;;;5024036;28;20199;-77
2021/09/06 00:45:01;;;;;;;7.80;7.10;;;19.00;99.90;;;;;;5026110;28;20204;-77
2021/09/06 00:47:28;;;;;;;8.13;7.32;;;18.90;99.90;;;;;;5036279;28;20205;-77
2021/09/06 00:49:54;;;;;;;8.40;7.53;;;19.00;99.90;;;;;;5027348;28;20198;-77
2021/09/06 00:52:21;;;;;;;9.15;8.25;;;19.00;99.90;;;;;;5035023;28;20682;-77
2021/09/06 00:54:49;;;;;;;9.35;7.72;;;18.90;99.90;;;;;;5032814;28;20197;-77
2021/09/06 00:57:18;;;;;;;7.65;6.95;;;18.90;99.90;;;;;;5041075;28;20192;-76
2021/09/06 00:59:44;;;;;;;8.55;7.07;;;18.80;99.90;;;;;;5029695;28;20228;-77
2021/09/06 01:02:11;;;;;;;10.88;7.80;;;18.90;99.90;;;;;;5032608;28;20246;-76
2021/09/06 01:04:38;;;;;;;10.30;8.07;;;18.80;99.90;;;;;;5024720;28;20664;-77
2021/09/06 01:07:04;;;;;;;8.02;7.18;;;18.80;99.90;;;;;;5023791;28;20197;-76
2021/09/06 01:09:31;;;;;;;8.55;7.72;;;18.80;99.90;;;;;;5018835;28;20193;-77
2021/09/06 01:11:58;;;;;;;7.95;7.00;;;18.70;99.90;;;;;;5021947;28;20196;-78
2021/09/06 01:14:26;;;;;;;8.48;7.25;;;18.70;99.90;;;;;;5025570;28;20204;-77
2021/09/06 01:16:53;;;;;;;8.80;7.97;;;18.70;99.90;;;;;;5031099;28;20246;-77
2021/09/06 01:19:19;;;;;;;8.57;7.68;;;18.70;99.90;;;;;;5022516;28;20233;-77
2021/09/06 01:21:46;;;;;;;13.98;8.73;;;18.70;99.90;;;;;;5030767;28;20731;-77
2021/09/06 01:24:16;;;;;;;10.13;7.95;;;18.70;99.90;;;;;;5032189;28;20211;-78
2021/09/06 01:26:44;;;;;;;8.18;7.38;;;18.60;99.90;;;;;;5048327;28;20199;-78
2021/09/06 01:29:11;;;;;;;10.68;7.35;;;18.60;99.90;;;;;;5034258;28;20653;-79
2021/09/06 01:31:38;;;;;;;9.77;7.57;;;18.60;99.90;;;;;;5026741;28;20242;-76
2021/09/06 01:34:06;;;;;;;9.63;8.68;;;18.60;99.90;;;;;;5030367;28;20192;-77
2021/09/06 01:36:33;;;;;;;8.75;7.18;;;18.60;99.90;;;;;;5028719;28;20192;-76
2021/09/06 01:39:00;;;;;;;8.15;7.38;;;18.50;99.90;;;;;;5031399;28;20224;-77
2021/09/06 01:41:26;;;;;;;9.52;8.52;;;18.50;99.90;;;;;;5030367;28;20246;-77
2021/09/06 01:43:54;;;;;;;8.27;7.40;;;18.50;99.90;;;;;;5029766;28;20600;-76
2021/09/06 01:46:21;;;;;;;8.43;7.35;;;18.50;99.90;;;;;;5028423;28;20192;-76
2021/09/06 01:48:48;;;;;;;8.45;7.65;;;18.50;99.90;;;;;;5028005;28;20209;-76
2021/09/06 01:51:15;;;;;;;7.40;6.70;;;18.50;99.90;;;;;;5033323;28;20723;-77
2021/09/06 01:53:42;;;;;;;9.98;8.18;;;18.40;99.90;;;;;;5031709;28;20192;-77
2021/09/06 01:56:08;;;;;;;9.05;8.13;;;18.40;99.90;;;;;;5029114;28;20227;-76
2021/09/06 01:58:35;;;;;;;8.48;7.68;;;18.40;99.90;;;;;;5025912;28;20255;-77
2021/09/06 02:01:03;;;;;;;8.82;7.82;;;18.30;99.90;;;;;;5031541;28;20560;-76
2021/09/06 02:03:30;;;;;;;8.63;7.75;;;18.40;99.90;;;;;;5027434;28;20196;-77
2021/09/06 02:05:56;;;;;;;10.32;8.07;;;18.40;99.90;;;;;;5027851;28;20227;-76
2021/09/06 02:08:23;;;;;;;8.93;7.70;;;18.40;99.90;;;;;;5030086;28;20200;-77
2021/09/06 02:10:50;;;;;;;7.82;6.90;;;18.40;99.90;;;;;;5036457;28;20249;-76
2021/09/06 02:13:17;;;;;;;8.98;7.18;;;18.30;99.90;;;;;;5033934;28;20200;-75
2021/09/06 02:15:43;;;;;;;8.55;7.65;;;18.30;99.90;;;;;;5032414;28;20187;-76
2021/09/06 02:18:11;;;;;;;10.50;8.55;;;18.30;99.90;;;;;;5036124;28;20200;-77
2021/09/06 02:20:38;;;;;;;10.05;8.00;;;18.20;99.90;;;;;;5032564;28;20223;-75
2021/09/06 02:23:05;;;;;;;10.88;9.77;;;18.20;99.90;;;;;;5029287;28;20235;-75
2021/09/06 02:25:31;;;;;;;10.57;8.50;;;18.20;99.90;;;;;;5030053;28;20199;-75
2021/09/06 02:27:58;;;;;;;9.80;8.30;;;18.20;99.90;;;;;;5036187;28;20197;-75
2021/09/06 02:30:25;;;;;;;7.65;6.95;;;18.20;99.90;;;;;;5025200;28;20189;-75
2021/09/06 02:32:52;;;;;;;9.25;8.25;;;18.10;99.90;;;;;;5016719;28;20241;-75
2021/09/06 02:35:21;;;;;;;9.35;8.35;;;18.10;99.90;;;;;;5025903;28;20204;-76
2021/09/06 02:37:48;;;;;;;9.65;8.27;;;18.10;99.90;;;;;;5027224;28;20200;-75
2021/09/06 02:40:16;;;;;;;9.25;8.35;;;18.10;99.90;;;;;;5031172;28;20216;-75
2021/09/06 02:42:43;;;;;;;8.80;7.82;;;18.10;99.90;;;;;;5023029;28;20196;-76
2021/09/06 02:45:11;;;;;;;10.07;9.07;;;18.00;99.90;;;;;;5021864;28;20247;-77
2021/09/06 02:47:38;;;;;;;10.35;8.88;;;18.00;99.90;;;;;;5027315;28;20192;-77
2021/09/06 02:50:05;;;;;;;9.73;8.57;;;18.00;99.90;;;;;;5038076;28;20222;-75
2021/09/06 02:52:34;;;;;;;9.13;7.57;;;18.00;99.90;;;;;;5030720;28;20192;-76
2021/09/06 02:55:01;;;;;;;9.65;8.65;;;18.00;99.90;;;;;;5026098;28;20196;-76
2021/09/06 02:57:27;;;;;;;8.60;7.72;;;18.00;99.90;;;;;;5027207;28;20620;-76
2021/09/06 02:59:54;;;;;;;8.55;7.07;;;18.30;99.90;;;;;;5038978;28;20223;-75
2021/09/06 03:02:21;;;;;;;8.93;8.02;;;18.00;99.90;;;;;;5025392;28;20267;-75
2021/09/06 03:04:48;;;;;;;9.70;8.07;;;18.00;99.90;;;;;;5028846;28;20200;-75
2021/09/06 03:07:15;;;;;;;8.10;7.18;;;18.00;99.90;;;;;;5030787;28;20188;-75
2021/09/06 03:09:42;;;;;;;9.10;7.72;;;17.90;99.90;;;;;;5022338;28;20192;-75
2021/09/06 03:12:09;;;;;;;9.30;7.82;;;17.90;99.90;;;;;;5038125;28;20200;-75
2021/09/06 03:14:36;;;;;;;8.60;7.70;;;17.90;99.90;;;;;;5021228;28;20204;-75
2021/09/06 03:17:03;;;;;;;8.75;7.45;;;17.90;99.90;;;;;;5030775;28;20195;-76
2021/09/06 03:19:30;;;;;;;8.73;7.93;;;17.90;99.90;;;;;;5028340;28;20223;-75
2021/09/06 03:21:56;;;;;;;9.15;7.70;;;17.90;99.90;;;;;;5030962;28;20238;-75
2021/09/06 03:24:23;;;;;;;7.82;7.03;;;17.90;99.90;;;;;;5023649;28;20605;-75
2021/09/06 03:26:51;;;;;;;8.75;7.90;;;17.80;99.90;;;;;;5028009;28;20251;-75
2021/09/06 03:29:18;;;;;;;9.23;8.30;;;17.80;99.90;;;;;;5027947;28;20199;-75
2021/09/06 03:31:44;;;;;;;8.20;7.40;;;17.80;99.90;;;;;;5037179;28;20597;-75
2021/09/06 03:34:11;;;;;;;8.98;7.82;;;17.80;99.90;;;;;;5022458;28;20604;-75
2021/09/06 03:36:38;;;;;;;7.80;6.75;;;17.80;99.90;;;;;;5028577;28;20425;-75
2021/09/06 03:39:04;;;;;;;6.88;6.25;;;17.70;99.90;;;;;;5020970;28;20254;-75
2021/09/06 03:41:33;;;;;;;9.20;6.40;;;17.70;99.90;;;;;;5035604;28;20581;-75
2021/09/06 03:44:01;;;;;;;9.48;7.43;;;17.70;99.90;;;;;;5025056;28;20283;-76
2021/09/06 03:46:28;;;;;;;9.55;6.93;;;17.70;99.90;;;;;;5030072;28;20443;-75
2021/09/06 03:48:55;;;;;;;11.18;6.70;;;17.60;99.90;;;;;;5033729;28;20663;-75
2021/09/06 03:51:22;;;;;;;7.47;6.78;;;17.60;99.90;;;;;;5038719;28;20196;-75
2021/09/06 03:53:48;;;;;;;7.43;6.72;;;17.60;99.90;;;;;;5027608;28;20196;-75
2021/09/06 03:56:15;;;;;;;7.95;7.15;;;17.60;99.90;;;;;;5028973;28;20192;-75
2021/09/06 03:58:42;;;;;;;8.73;7.40;;;17.60;99.90;;;;;;5031581;28;20680;-75
2021/09/06 04:01:10;;;;;;;7.35;6.47;;;17.60;99.90;;;;;;5026610;28;20216;-76
2021/09/06 04:03:37;;;;;;;8.13;7.30;;;17.50;99.90;;;;;;5031206;28;20573;-78
2021/09/06 04:06:04;;;;;;;7.45;6.70;;;17.50;99.90;;;;;;5024773;28;20243;-76
2021/09/06 04:08:30;;;;;;;7.97;6.38;;;17.50;99.90;;;;;;5031469;28;20196;-76
2021/09/06 04:10:58;;;;;;;9.45;8.35;;;17.50;99.90;;;;;;5028358;28;20200;-76
2021/09/06 04:13:25;;;;;;;8.05;5.82;;;17.40;99.90;;;;;;5034079;28;20216;-76
2021/09/06 04:15:51;;;;;;;6.90;6.20;;;17.40;99.90;;;;;;5032933;28;20203;-76
2021/09/06 04:18:20;;;;;;;7.18;6.30;;;17.40;99.90;;;;;;5029043;28;20188;-76
2021/09/06 04:20:47;;;;;;;8.35;7.30;;;17.40;99.90;;;;;;5044202;28;20623;-76
2021/09/06 04:23:14;;;;;;;8.00;7.30;;;17.40;99.90;;;;;;5034557;28;20195;-76
2021/09/06 04:25:41;;;;;;;6.63;5.80;;;17.30;99.90;;;;;;5033157;28;20201;-76
2021/09/06 04:28:07;;;;;;;7.03;6.43;;;17.30;99.90;;;;;;5034925;28;20234;-76
2021/09/06 04:30:34;;;;;;;7.13;6.43;;;17.30;99.90;;;;;;5038753;28;20199;-76
2021/09/06 04:33:01;;;;;;;7.38;5.82;;;17.30;99.90;;;;;;5034868;28;20192;-76
2021/09/06 04:35:29;;;;;;;6.68;5.97;;;17.30;99.90;;;;;;5034495;28;20592;-77
2021/09/06 04:37:55;;;;;;;6.00;5.40;;;17.30;99.90;;;;;;5027356;28;20243;-77
2021/09/06 04:40:22;;;;;;;7.50;6.40;;;17.30;99.90;;;;;;5029987;28;20216;-78
2021/09/06 04:42:49;;;;;;;7.18;6.25;;;17.30;99.90;;;;;;5036915;28;20227;-77
2021/09/06 04:45:16;;;;;;;8.15;6.63;;;17.20;99.90;;;;;;5031441;28;20197;-77
2021/09/06 04:47:43;;;;;;;6.32;5.75;;;17.20;99.90;;;;;;5041260;28;20282;-77
2021/09/06 04:50:11;;;;;;;6.70;6.10;;;17.20;99.90;;;;;;5031366;28;20200;-76
2021/09/06 04:52:39;;;;;;;7.15;6.15;;;17.20;99.90;;;;;;5030190;28;20203;-77
2021/09/06 04:55:06;;;;;;;5.93;5.32;;;17.20;99.90;;;;;;5025737;28;20204;-77
2021/09/06 04:57:33;;;;;;;6.80;6.10;;;17.20;99.90;;;;;;5031978;28;20197;-76
2021/09/06 05:00:00;;;;;;;7.80;6.63;;;17.10;99.90;;;;;;5030307;28;20227;-76
2021/09/06 05:02:27;;;;;;;6.45;5.78;;;17.20;99.90;;;;;;5033098;28;20279;-76
2021/09/06 05:04:53;;;;;;;8.23;7.45;;;17.10;99.90;;;;;;5031663;28;20188;-76
2021/09/06 05:07:20;;;;;;;9.85;8.10;;;17.10;99.90;;;;;;5023926;28;20200;-76
2021/09/06 05:09:48;;;;;;;8.15;6.97;;;17.10;99.90;;;;;;5026133;28;20203;-77
2021/09/06 05:12:15;;;;;;;11.77;7.03;;;17.10;99.90;;;;;;5039778;28;20192;-78
2021/09/06 05:14:42;;;;;;;9.05;7.93;;;17.10;99.90;;;;;;5037207;28;20199;-77
2021/09/06 05:17:09;;;;;;;7.60;6.07;;;17.00;99.90;;;;;;5029753;28;20209;-78
2021/09/06 05:19:36;;;;;;;8.35;6.85;;;17.10;99.90;;;;;;5035466;28;20239;-79
2021/09/06 05:22:03;;;;;;;10.10;7.80;;;17.00;99.90;;;;;;5027621;28;20207;-78
2021/09/06 05:24:29;;;;;;;7.93;7.13;;;17.00;99.90;;;;;;5034029;28;20609;-78
2021/09/06 05:26:58;;;;;;;12.05;7.00;;;17.00;99.90;;;;;;5025646;28;20279;-78
2021/09/06 05:29:24;;;;;;;7.55;6.53;;;17.10;99.90;;;;;;5036768;28;20207;-79
2021/09/06 05:31:51;;;;;;;7.88;6.93;;;17.10;99.90;;;;;;5025634;28;20728;-78
2021/09/06 05:34:18;;;;;;;8.65;6.65;;;17.10;99.90;;;;;;5026188;28;20201;-77
2021/09/06 05:36:44;;;;;;;8.43;7.13;;;17.10;99.90;;;;;;5023704;28;20243;-75
2021/09/06 05:39:11;;;;;;;8.70;7.20;;;17.10;99.90;;;;;;5025232;28;20570;-75
2021/09/06 05:41:38;;;;;;;7.72;6.93;;;17.10;99.90;;;;;;5025020;28;20207;-76
2021/09/06 05:44:08;;;;;;;8.10;6.10;;;17.10;99.90;;;;;;5027265;28;20239;-76
2021/09/06 05:46:35;;;;;;;9.82;7.75;;;17.10;99.90;;;;;;5026454;28;20192;-76
2021/09/06 05:49:01;;;;;;;8.15;7.35;;;17.10;99.90;;;;;;5016633;28;20186;-76
2021/09/06 05:51:28;;;;;;;8.07;5.93;;;17.10;99.90;;;;;;5013989;28;20248;-76
2021/09/06 05:53:55;;;;;;;7.60;6.82;;;17.20;99.90;;;;;;5018415;28;20688;-77
2021/09/06 05:56:21;;;;;;;8.00;7.10;;;17.20;99.90;;;;;;5028320;28;20197;-76
2021/09/06 05:58:48;;;;;;;10.30;9.30;;;17.30;99.90;;;;;;5019424;28;20184;-77
2021/09/06 06:01:16;;;;;;;9.85;7.50;;;17.40;99.90;;;;;;5018487;28;20232;-76
2021/09/06 06:03:43;;;;;;;8.00;6.97;;;17.60;99.90;;;;;;5018638;28;20205;-76
2021/09/06 06:06:10;;;;;;;7.97;7.18;;;17.80;99.90;;;;;;5027816;28;20258;-75
2021/09/06 06:08:36;;;;;;;8.43;6.82;;;18.00;99.90;;;;;;5027594;28;20726;-76
2021/09/06 06:11:03;;;;;;;6.68;6.03;;;18.10;99.90;;;;;;5014735;28;20205;-75
2021/09/06 06:13:30;;;;;;;8.35;7.05;;;18.20;99.90;;;;;;5015526;28;20196;-75
2021/09/06 06:15:57;;;;;;;7.20;5.95;;;18.30;99.90;;;;;;5029630;28;20192;-75
2021/09/06 06:18:25;;;;;;;10.10;7.55;;;18.10;99.90;;;;;;5025004;28;20612;-76
2021/09/06 06:20:52;;;;;;;7.07;6.20;;;18.40;99.90;;;;;;5028306;28;20223;-76
2021/09/06 06:23:18;;;;;;;7.15;6.18;;;18.50;99.90;;;;;;5016315;28;20201;-77
2021/09/06 06:25:45;;;;;;;7.97;6.40;;;18.40;99.90;;;;;;5023286;28;20203;-77
2021/09/06 06:28:12;;;;;;;8.63;6.90;;;18.40;99.90;;;;;;5028917;28;20192;-76
2021/09/06 06:30:38;;;;;;;8.43;6.55;;;18.50;99.90;;;;;;5020391;28;20192;-76
2021/09/06 06:33:05;;;;;;;7.38;6.68;;;18.60;99.90;;;;;;5031100;28;20197;-76
2021/09/06 06:35:33;;;;;;;7.25;6.55;;;18.60;99.90;;;;;;5022347;28;20200;-76
2021/09/06 06:38:01;;;;;;;6.72;6.07;;;18.60;99.90;;;;;;5022861;28;20223;-77
2021/09/06 06:40:28;;;;;;;6.97;6.28;;;18.70;99.90;;;;;;5030724;28;20303;-77
2021/09/06 06:42:54;;;;;;;7.65;6.85;;;18.90;99.90;;;;;;5028556;28;20193;-77
2021/09/06 06:45:21;;;;;;;11.55;6.75;;;19.00;99.90;;;;;;5017828;28;20227;-77
2021/09/06 06:47:48;;;;;;;6.70;6.10;;;19.20;99.90;;;;;;5029049;28;20196;-76
2021/09/06 06:50:15;;;;;;;7.80;6.10;;;19.30;99.90;;;;;;5012965;28;20681;-77
2021/09/06 06:52:43;;;;;;;8.10;5.78;;;19.40;99.90;;;;;;5017391;28;20196;-77
2021/09/06 06:55:10;;;;;;;8.95;6.45;;;19.60;99.90;;;;;;5027754;28;20212;-77
2021/09/06 06:57:37;;;;;;;7.88;5.88;;;19.70;99.90;;;;;;5031406;28;20192;-76
2021/09/06 07:00:05;;;;;;;8.77;7.18;;;19.80;99.90;;;;;;5024844;28;20577;-76
2021/09/06 07:02:32;;;;;;;8.40;6.03;;;20.00;99.90;;;;;;5029388;28;20192;-76
2021/09/06 07:04:59;;;;;;;6.45;5.38;;;20.10;99.90;;;;;;5019939;28;20192;-76
2021/09/06 07:07:25;;;;;;;7.65;5.50;;;20.20;99.90;;;;;;5022319;28;20538;-76
2021/09/06 07:09:53;;;;;;;6.63;4.93;;;20.20;99.90;;;;;;5023361;28;20205;-76
2021/09/06 07:12:20;;;;;;;9.45;6.65;;;20.40;99.90;;;;;;5020406;28;20237;-76
2021/09/06 07:14:47;;;;;;;5.70;5.20;;;20.50;99.90;;;;;;5028004;28;20188;-76
2021/09/06 07:17:13;;;;;;;10.27;6.50;;;20.60;99.90;;;;;;5029419;28;20559;-76
2021/09/06 07:19:41;;;;;;;7.65;6.43;;;20.70;99.90;;;;;;5012084;28;20213;-76
2021/09/06 07:22:07;;;;;;;6.57;5.60;;;20.80;99.90;;;;;;5014082;28;20203;-84
2021/09/06 07:24:34;;;;;;;7.03;5.93;;;20.90;99.90;;;;;;5026966;28;20653;-79
2021/09/06 07:27:02;;;;;;;7.57;5.65;;;21.00;99.90;;;;;;5030701;28;20208;-82
2021/09/06 07:29:29;;;;;;;6.90;5.65;;;21.00;99.90;;;;;;5037427;28;20199;-80
2021/09/06 07:31:56;;;;;;;6.72;5.45;;;21.20;99.90;;;;;;5042915;28;20192;-81
2021/09/06 07:34:22;;;;;;;8.13;6.30;;;21.10;99.90;;;;;;5022208;28;20571;-76
2021/09/06 07:36:49;;;;;;;5.95;5.40;;;21.20;99.90;;;;;;5031935;28;20657;-75
2021/09/06 07:39:17;;;;;;;6.55;5.03;;;21.30;99.90;;;;;;5025542;28;20200;-75
2021/09/06 07:41:43;;;;;;;7.50;5.50;;;21.30;99.90;;;;;;5026725;28;20298;-76
2021/09/06 07:44:12;;;;;;;6.90;5.43;;;21.40;99.90;;;;;;5033924;28;20963;-76
2021/09/06 07:46:38;;;;;;;6.30;5.70;;;21.40;99.90;;;;;;5035548;28;20443;-75
2021/09/06 07:49:05;;;;;;;7.10;4.70;;;21.40;99.90;;;;;;5025721;28;20200;-76
2021/09/06 07:51:32;;;;;;;6.83;5.77;;;21.50;99.90;;;;;;5023300;28;20454;-76
2021/09/06 07:54:00;;;;;;;6.47;5.80;;;21.50;99.90;;;;;;5031260;28;20465;-76
2021/09/06 07:56:27;;;;;;;5.90;5.13;;;21.60;99.90;;;;;;5038292;28;20839;-81
2021/09/06 07:58:53;;;;;;;5.17;4.63;;;21.60;99.90;;;;;;5042515;28;20200;-82
2021/09/06 08:01:21;;;;;;;7.07;5.27;;;21.70;99.90;;;;;;5035871;28;20478;-80
2021/09/06 08:03:48;;;;;;;6.00;5.20;;;21.70;99.90;;;;;;5038327;28;20952;-81
2021/09/06 08:06:16;;;;;;;6.43;5.50;;;21.70;99.90;;;;;;5045736;28;20427;-81
2021/09/06 08:08:43;;;;;;;6.80;5.70;;;21.80;99.90;;;;;;5045236;28;20450;-81
2021/09/06 08:11:12;;;;;;;7.13;5.40;;;21.60;99.90;;;;;;5034460;28;20463;-80
2021/09/06 08:13:42;;;;;;;5.43;4.83;;;21.80;99.90;;;;;;5033299;28;21027;-81
2021/09/06 08:16:09;;;;;;;6.70;5.40;;;23.30;99.90;;;;;;5041599;28;20860;-80
2021/09/06 08:18:37;;;;;;;5.53;4.93;;;21.80;99.90;;;;;;5033595;28;20458;-80
2021/09/06 08:21:04;;;;;;;6.30;5.70;;;21.90;99.90;;;;;;5034767;28;20905;-79
2021/09/06 08:23:31;;;;;;;5.57;5.07;;;21.90;99.90;;;;;;5040092;28;20471;-79
2021/09/06 08:25:57;;;;;;;6.30;5.60;;;21.90;99.90;;;;;;5031089;28;20460;-80
2021/09/06 08:28:24;;;;;;;7.07;6.37;;;22.00;99.90;;;;;;5045275;28;20481;-81
2021/09/06 08:30:51;;;;;;;7.03;6.33;;;22.00;99.90;;;;;;5047673;28;20979;-80
2021/09/06 08:33:18;;;;;;;5.70;5.10;;;21.80;99.90;;;;;;5040417;28;20458;-75
2021/09/06 08:35:47;;;;;;;7.03;5.80;;;22.00;99.90;;;;;;5015562;28;20460;-77
2021/09/06 08:38:14;;;;;;;6.30;5.67;;;22.00;99.90;;;;;;5030625;28;20481;-77
2021/09/06 08:40:40;;;;;;;6.03;5.40;;;22.10;99.90;;;;;;5022857;28;20485;-77
2021/09/06 08:43:08;;;;;;;6.20;5.60;;;22.10;99.90;;;;;;5032900;28;20458;-77
2021/09/06 08:45:35;;;;;;;5.80;4.83;;;22.10;99.90;;;;;;5034568;28;20496;-76
2021/09/06 08:48:03;;;;;;;6.10;5.40;;;22.10;99.90;;;;;;5033775;28;20470;-77
2021/09/06 08:50:30;;;;;;;10.17;6.37;;;22.20;99.90;;;;;;5019864;28;20523;-76
2021/09/06 08:52:59;;;;;;;6.43;5.70;;;22.20;99.90;;;;;;5032495;28;20512;-77
2021/09/06 08:55:25;;;;;;;6.10;5.40;;;22.20;99.90;;;;;;5029682;28;20806;-77
2021/09/06 08:57:52;;;;;;;6.20;5.60;;;22.20;99.90;;;;;;5014807;28;20452;-76
2021/09/06 09:00:26;;;;;;;7.60;6.60;;;22.20;99.90;;;;;;5016888;28;20956;-76
2021/09/06 09:02:53;;;;;;;6.30;5.30;;;22.20;99.90;;;;;;5020098;28;20506;-77
2021/09/06 09:05:20;;;;;;;9.97;7.00;;;22.30;99.90;;;;;;5034261;28;20454;-77
2021/09/06 09:07:46;;;;;;;5.77;4.73;;;22.30;99.90;;;;;;5034214;28;20773;-77
2021/09/06 09:10:27;;;;;;;8.13;5.77;;;22.30;99.90;;;;;;5022758;28;20463;-77
2021/09/06 09:13:04;;;;;;;9.33;6.57;;;22.30;99.90;;;;;;5021148;28;20979;-77
2021/09/06 09:15:31;;;;;;;6.53;5.80;;;22.30;99.90;;;;;;5026244;28;20461;-77
2021/09/06 09:17:58;;;;;;;7.20;6.50;;;22.30;99.90;;;;;;5024198;28;20463;-76
2021/09/06 09:20:37;;;;;;;11.13;6.23;;;22.30;99.90;;;;;;5033889;28;20471;-76
2021/09/06 09:23:05;;;;;;;7.53;6.70;;;22.30;99.90;;;;;;5033761;28;20530;-76
2021/09/06 09:25:33;;;;;;;8.17;6.40;;;22.40;99.90;;;;;;5032387;28;20459;-77
2021/09/06 09:28:00;;;;;;;7.60;6.80;;;22.30;99.90;;;;;;5031473;28;20463;-76
2021/09/06 09:30:30;;;;;;;7.10;6.03;;;22.40;99.90;;;;;;5033429;28;20489;-76
2021/09/06 09:33:09;;;;;;;6.13;5.53;;;22.30;99.90;;;;;;5033511;28;20446;-76
2021/09/06 09:35:35;;;;;;;8.37;7.47;;;22.30;99.90;;;;;;5035870;28;20458;-79
2021/09/06 09:38:03;;;;;;;7.47;6.60;;;22.30;99.90;;;;;;5038416;28;20485;-78
2021/09/06 09:40:36;;;;;;;8.57;7.60;;;22.30;99.90;;;;;;5028188;28;20470;-78
2021/09/06 09:43:03;;;;;;;7.77;6.97;;;22.30;99.90;;;;;;5036159;28;20446;-78
2021/09/06 09:45:30;;;;;;;10.70;6.63;;;22.30;99.90;;;;;;5038131;28;20435;-78
2021/09/06 09:47:59;;;;;;;8.70;7.10;;;22.30;99.90;;;;;;5026939;28;20509;-78
2021/09/06 09:50:28;;;;;;;8.13;6.37;;;22.20;99.90;;;;;;5035368;28;20455;-78
2021/09/06 09:52:56;;;;;;;8.90;7.00;;;22.20;99.90;;;;;;5017915;28;20455;-78
2021/09/06 09:55:24;;;;;;;10.40;6.43;;;22.20;99.90;;;;;;5022066;28;20502;-78
2021/09/06 09:57:53;;;;;;;7.50;6.70;;;22.20;99.90;;;;;;5027767;28;20466;-78
2021/09/06 10:00:21;;;;;;;6.93;6.23;;;22.20;99.90;;;;;;5034062;28;20463;-78
2021/09/06 10:02:51;;;;;;;8.13;7.33;;;22.20;99.90;;;;;;5032570;28;20478;-78
2021/09/06 10:05:23;;;;;;;7.37;6.67;;;22.20;99.90;;;;;;5028490;28;20814;-78
2021/09/06 10:07:50;;;;;;;8.00;7.27;;;22.20;99.90;;;;;;5030805;28;20458;-78
2021/09/06 10:10:22;;;;;;;7.83;7.03;;;22.20;99.90;;;;;;5032383;28;20540;-78
2021/09/06 10:13:02;;;;;;;8.30;7.50;;;22.20;99.90;;;;;;5035386;28;20514;-78
2021/09/06 10:15:29;;;;;;;9.23;7.20;;;22.20;99.90;;;;;;5026493;28;20443;-78
2021/09/06 10:17:56;;;;;;;10.50;8.73;;;22.30;99.90;;;;;;5029665;28;20456;-80
2021/09/06 10:20:24;;;;;;;8.20;7.40;;;22.20;99.90;;;;;;5021560;28;20478;-79
2021/09/06 10:23:02;;;;;;;8.50;7.17;;;22.10;99.90;;;;;;5030811;28;20849;-79
2021/09/06 10:25:31;;;;;;;10.00;7.83;;;22.10;99.90;;;;;;5024669;28;20467;-79
2021/09/06 10:28:03;;;;;;;10.17;8.37;;;22.00;99.90;;;;;;5029250;28;20852;-78
2021/09/06 10:30:36;;;;;;;7.57;6.80;;;22.00;99.90;;;;;;5034681;28;20455;-78
2021/09/06 10:33:03;;;;;;;8.87;7.80;;;22.00;99.90;;;;;;5026922;28;20463;-77
2021/09/06 10:35:30;;;;;;;8.67;7.73;;;22.00;99.90;;;;;;5033329;28;20983;-78
2021/09/06 10:38:06;;;;;;;12.23;7.80;;;22.00;99.90;;;;;;5036196;28;20497;-78
2021/09/06 10:40:35;;;;;;;10.90;8.75;;;22.00;99.90;;;;;;5025571;28;20459;-78
2021/09/06 10:43:13;;;;;;;9.53;8.17;;;22.00;99.90;;;;;;5029791;28;20204;-77
2021/09/06 10:45:41;;;;;;;10.60;8.93;;;22.00;99.90;;;;;;5032747;28;20855;-78
2021/09/06 10:48:08;;;;;;;10.00;8.23;;;22.00;99.90;;;;;;5026126;28;20521;-77
2021/09/06 10:50:38;;;;;;;11.20;9.20;;;22.00;99.90;;;;;;5032006;28;20533;-77
2021/09/06 10:53:05;;;;;;;9.97;8.97;;;22.00;99.90;;;;;;5026839;28;20530;-78
2021/09/06 10:55:31;;;;;;;8.37;7.53;;;22.00;99.90;;;;;;5029337;28;20512;-78
2021/09/06 10:58:00;;;;;;;7.97;7.27;;;21.90;99.90;;;;;;5025738;28;21002;-77
2021/09/06 11:00:28;;;;;;;10.73;9.10;;;21.90;99.90;;;;;;5027912;28;20893;-78
2021/09/06 11:02:54;;;;;;;10.40;8.80;;;21.90;99.90;;;;;;5031101;28;20474;-76
2021/09/06 11:05:23;;;;;;;8.70;6.87;;;21.90;99.90;;;;;;5027847;28;20459;-78
2021/09/06 11:07:51;;;;;;;10.63;8.93;;;21.90;99.90;;;;;;5030795;28;20435;-77
2021/09/06 11:10:22;;;;;;;8.20;7.10;;;21.90;99.90;;;;;;5016772;28;20873;-77
2021/09/06 11:12:56;;;;;;;6.97;6.27;;;22.00;99.90;;;;;;5011818;28;20502;-77
2021/09/06 11:15:24;;;;;;;9.57;8.43;;;21.90;99.90;;;;;;5016788;28;20979;-79
2021/09/06 11:18:01;;;;;;;8.53;7.23;;;22.00;99.90;;;;;;5022741;28;20466;-77
2021/09/06 11:20:29;;;;;;;6.60;5.90;;;21.90;99.90;;;;;;5015780;28;20482;-77
2021/09/06 11:22:59;;;;;;;9.63;7.87;;;22.00;99.90;;;;;;5011377;28;20476;-77
2021/09/06 11:25:27;;;;;;;7.37;6.60;;;22.00;99.90;;;;;;5014367;28;20571;-78
2021/09/06 11:28:04;;;;;;;8.30;7.47;;;22.00;99.90;;;;;;5010902;28;20459;-76
2021/09/06 11:30:33;;;;;;;15.17;8.53;;;22.00;99.90;;;;;;5010326;28;20510;-77
2021/09/06 11:33:04;;;;;;;9.37;7.50;;;22.00;99.90;;;;;;5030190;28;20466;-77
2021/09/06 11:35:31;;;;;;;9.00;7.80;;;22.00;99.90;;;;;;5021208;28;20459;-76
2021/09/06 11:37:58;;;;;;;8.83;7.67;;;22.00;99.90;;;;;;5021447;28;20533;-76
2021/09/06 11:40:26;;;;;;;8.87;7.97;;;22.00;99.90;;;;;;5020217;28;20533;-77
2021/09/06 11:42:53;;;;;;;9.70;7.73;;;22.00;99.90;;;;;;5021486;28;20513;-76
2021/09/06 11:45:21;;;;;;;8.73;7.83;;;22.00;99.90;;;;;;5031631;28;20438;-76
2021/09/06 11:47:48;;;;;;;9.03;6.67;;;22.00;99.90;;;;;;5011213;28;20470;-77
2021/09/06 11:50:20;;;;;;;11.00;8.45;;;22.00;99.90;;;;;;5027263;28;20903;-76
2021/09/06 11:52:47;;;;;;;8.83;7.57;;;22.10;99.90;;;;;;5026986;28;20197;-77
2021/09/06 11:55:17;;;;;;;7.93;7.00;;;22.10;99.90;;;;;;5012775;28;20471;-78
2021/09/06 11:57:44;;;;;;;10.10;8.13;;;22.10;99.90;;;;;;5013225;28;20455;-77
2021/09/06 12:00:12;;;;;;;9.80;7.67;;;22.10;99.90;;;;;;5015759;28;20463;-77
2021/09/06 12:02:49;;;;;;;10.33;8.20;;;22.10;99.90;;;;;;5011365;28;20488;-77
2021/09/06 12:05:18;;;;;;;7.90;7.23;;;22.10;99.90;;;;;;5012556;28;20514;-77
2021/09/06 12:07:49;;;;;;;9.00;8.13;;;22.10;99.90;;;;;;5012481;28;20859;-77
2021/09/06 12:10:30;;;;;;;8.87;8.07;;;22.10;99.90;;;;;;5015931;28;20193;-77
2021/09/06 12:12:59;;;;;;;10.90;8.10;;;22.10;99.90;;;;;;5010760;28;20841;-78
2021/09/06 12:15:26;;;;;;;7.80;7.00;;;22.10;99.90;;;;;;5024047;28;20683;-78
2021/09/06 12:18:06;;;;;;;8.80;7.50;;;21.80;99.90;;;;;;5010959;28;20456;-78
2021/09/06 12:20:38;;;;;;;9.27;8.27;;;22.10;99.90;;;;;;5013531;28;21073;-77
2021/09/06 12:23:05;;;;;;;9.43;8.43;;;22.10;99.90;;;;;;5011989;28;20478;-78
2021/09/06 12:25:32;;;;;;;9.57;7.87;;;22.10;99.90;;;;;;5010341;28;20452;-77
2021/09/06 12:28:10;;;;;;;9.60;7.90;;;22.10;99.90;;;;;;5012365;28;20462;-78
2021/09/06 12:30:37;;;;;;;8.43;7.63;;;22.10;99.90;;;;;;5017349;28;20520;-77
2021/09/06 12:33:03;;;;;;;9.47;7.50;;;22.00;99.90;;;;;;5015052;28;20464;-77
2021/09/06 12:35:30;;;;;;;9.47;7.50;;;22.10;99.90;;;;;;5016464;28;20947;-77
2021/09/06 12:37:58;;;;;;;8.70;7.30;;;22.10;99.90;;;;;;5020422;28;20808;-77
2021/09/06 12:40:25;;;;;;;9.20;7.30;;;22.10;99.90;;;;;;5021027;28;20522;-79
2021/09/06 12:42:51;;;;;;;9.10;8.13;;;22.00;99.90;;;;;;5015448;28;20530;-78
2021/09/06 12:45:19;;;;;;;7.43;6.60;;;22.00;99.90;;;;;;5019761;28;20483;-77
2021/09/06 12:47:46;;;;;;;8.07;6.70;;;22.00;99.90;;;;;;5012583;28;20474;-77